Kinney, Minnesota
Current Conditions -  °F | °C
As of 9:53 PM on Saturday 20 Dec 2014 (Local Time) from KHIB Reporting Station
Overcast Overcast  
Wind Chill: 21°   Ceiling: 700
Heat Index: 29°   Visibility: 9mi
Dew Point: 25°   Wind: 8mph
Humidity: 85%   Direction: 180°S
Pressure: 30.01"   Gusts: NA
Location:  47.51°N, 92.73°W
Report Text: KHIB 210353Z AUTO 18007KT 9SM OVC007 M02/M04 A3001 RMK AO2 SLP182 T10171039
Loading
Personal Weather Stations






























Interactive Weather Map New forecast layout! Learn more

10-Day Weather Forecast

Advertisements
Track Severe Weather on mobile